Brookport, Illinois
Current Conditions -  °F | °C
As of 11:55 AM on Friday 21 Nov 2014 (Local Time) from KM30 Reporting Station
Clear Clear  
Wind Chill: 40°   Ceiling: Unl
Heat Index: 44°   Visibility: 10mi
Dew Point: 25°   Wind: 7mph
Humidity: 46%   Direction: 90°E
Pressure: 30.4"   Gusts: NA
Location:  37.12°N, 88.63°W
Report Text: KM30 211755Z AUTO 09006KT 10SM CLR 07/M04 A3040 RMK AO2 T00681040 10068 21033
Loading
Personal Weather Stations






























Interactive Weather Map New forecast layout! Learn more

10-Day Weather Forecast

Advertisements
Track Severe Weather on mobile